Terminal Aerodrome Forecast
Issued by NWS

Home | Current Version | Previous Version | Graphics & Text | Print | Product List | Glossary On
Versions: 1 2 3 4 5 6 7 8 9 10 11 12 13
685
FTUS43 KMPX 170252 AAA
TAFAXN
TAF AMD
KAXN 170252Z 1703/1724 14015G22KT P6SM SCT012 BKN120
      TEMPO 1703/1705 BKN012 OVC120
     FM171000 16013KT P6SM OVC120
     FM171500 19010KT P6SM OVC015
     FM171800 31008KT P6SM OVC012=

USA.gov is the U.S. government's official web portal to all federal, state and local government web resources and services.